sensor_id;sensor_type;location;lat;lon;timestamp;temperature;humidity
70801;DHT22;59616;52.170;5.386;2022-09-06T00:01:20;21.10;70.70
70801;DHT22;59616;52.170;5.386;2022-09-06T00:03:49;21.00;70.90
70801;DHT22;59616;52.170;5.386;2022-09-06T00:06:17;21.00;71.10
70801;DHT22;59616;52.170;5.386;2022-09-06T00:08:45;20.90;71.10
70801;DHT22;59616;52.170;5.386;2022-09-06T00:11:13;20.90;71.60
70801;DHT22;59616;52.170;5.386;2022-09-06T00:13:41;21.00;71.80
70801;DHT22;59616;52.170;5.386;2022-09-06T00:16:18;20.90;71.50
70801;DHT22;59616;52.170;5.386;2022-09-06T00:18:46;20.90;71.50
70801;DHT22;59616;52.170;5.386;2022-09-06T00:21:25;20.80;71.40
70801;DHT22;59616;52.170;5.386;2022-09-06T00:23:52;20.90;71.50
70801;DHT22;59616;52.170;5.386;2022-09-06T00:26:20;20.90;71.40
70801;DHT22;59616;52.170;5.386;2022-09-06T00:28:47;20.80;71.10
70801;DHT22;59616;52.170;5.386;2022-09-06T00:31:17;20.90;71.40
70801;DHT22;59616;52.170;5.386;2022-09-06T00:33:44;20.90;71.40
70801;DHT22;59616;52.170;5.386;2022-09-06T00:36:12;21.00;71.40
70801;DHT22;59616;52.170;5.386;2022-09-06T00:38:39;21.00;71.50
70801;DHT22;59616;52.170;5.386;2022-09-06T00:41:09;21.00;71.50
70801;DHT22;59616;52.170;5.386;2022-09-06T00:43:37;21.00;71.40
70801;DHT22;59616;52.170;5.386;2022-09-06T00:46:05;21.00;71.40
70801;DHT22;59616;52.170;5.386;2022-09-06T00:48:33;21.00;71.30
70801;DHT22;59616;52.170;5.386;2022-09-06T00:51:03;21.00;71.30
70801;DHT22;59616;52.170;5.386;2022-09-06T00:53:31;20.90;71.50
70801;DHT22;59616;52.170;5.386;2022-09-06T00:55:58;20.80;71.70
70801;DHT22;59616;52.170;5.386;2022-09-06T00:58:25;20.80;71.90
70801;DHT22;59616;52.170;5.386;2022-09-06T01:00:52;20.90;72.00
70801;DHT22;59616;52.170;5.386;2022-09-06T01:03:22;20.90;72.00
70801;DHT22;59616;52.170;5.386;2022-09-06T01:08:36;21.00;72.20
70801;DHT22;59616;52.170;5.386;2022-09-06T01:11:12;21.00;72.40
70801;DHT22;59616;52.170;5.386;2022-09-06T01:13:59;21.00;72.60
70801;DHT22;59616;52.170;5.386;2022-09-06T01:16:49;21.00;72.50
70801;DHT22;59616;52.170;5.386;2022-09-06T01:22:28;21.00;72.70
70801;DHT22;59616;52.170;5.386;2022-09-06T01:31:15;20.90;72.90
70801;DHT22;59616;52.170;5.386;2022-09-06T01:39:30;20.80;73.30
70801;DHT22;59616;52.170;5.386;2022-09-06T01:41:59;20.70;73.40
70801;DHT22;59616;52.170;5.386;2022-09-06T01:44:28;20.70;73.10
70801;DHT22;59616;52.170;5.386;2022-09-06T01:47:12;20.60;73.50
70801;DHT22;59616;52.170;5.386;2022-09-06T01:53:13;20.60;73.90
70801;DHT22;59616;52.170;5.386;2022-09-06T01:55:42;20.60;74.10
70801;DHT22;59616;52.170;5.386;2022-09-06T02:01:35;20.60;74.10
70801;DHT22;59616;52.170;5.386;2022-09-06T02:04:07;20.50;74.30
70801;DHT22;59616;52.170;5.386;2022-09-06T02:06:44;20.50;74.20
70801;DHT22;59616;52.170;5.386;2022-09-06T02:09:16;20.50;74.50
70801;DHT22;59616;52.170;5.386;2022-09-06T02:12:04;20.40;74.50
70801;DHT22;59616;52.170;5.386;2022-09-06T02:14:42;20.40;74.40
70801;DHT22;59616;52.170;5.386;2022-09-06T02:17:13;20.40;74.70
70801;DHT22;59616;52.170;5.386;2022-09-06T02:19:46;20.30;74.80
70801;DHT22;59616;52.170;5.386;2022-09-06T02:22:17;20.20;75.00
70801;DHT22;59616;52.170;5.386;2022-09-06T02:24:49;20.10;75.40
70801;DHT22;59616;52.170;5.386;2022-09-06T02:27:17;20.00;75.60
70801;DHT22;59616;52.170;5.386;2022-09-06T02:29:43;19.90;75.80
70801;DHT22;59616;52.170;5.386;2022-09-06T02:32:16;19.80;76.00
70801;DHT22;59616;52.170;5.386;2022-09-06T02:34:44;19.80;76.20
70801;DHT22;59616;52.170;5.386;2022-09-06T02:37:12;19.70;76.20
70801;DHT22;59616;52.170;5.386;2022-09-06T02:39:40;19.70;76.20
70801;DHT22;59616;52.170;5.386;2022-09-06T02:42:09;19.80;76.30
70801;DHT22;59616;52.170;5.386;2022-09-06T02:44:36;19.70;76.20
70801;DHT22;59616;52.170;5.386;2022-09-06T02:47:03;19.70;76.30
70801;DHT22;59616;52.170;5.386;2022-09-06T02:49:30;19.70;76.30
70801;DHT22;59616;52.170;5.386;2022-09-06T02:51:57;19.70;76.40
70801;DHT22;59616;52.170;5.386;2022-09-06T02:54:24;19.70;76.30
70801;DHT22;59616;52.170;5.386;2022-09-06T02:56:51;19.70;76.60
70801;DHT22;59616;52.170;5.386;2022-09-06T02:59:18;19.80;76.30
70801;DHT22;59616;52.170;5.386;2022-09-06T03:01:44;19.80;76.10
70801;DHT22;59616;52.170;5.386;2022-09-06T03:04:11;19.90;76.10
70801;DHT22;59616;52.170;5.386;2022-09-06T03:06:38;19.90;76.00
70801;DHT22;59616;52.170;5.386;2022-09-06T03:09:05;19.90;75.80
70801;DHT22;59616;52.170;5.386;2022-09-06T03:11:31;19.90;75.90
70801;DHT22;59616;52.170;5.386;2022-09-06T03:13:58;20.00;75.90
70801;DHT22;59616;52.170;5.386;2022-09-06T03:16:25;20.00;75.90
70801;DHT22;59616;52.170;5.386;2022-09-06T03:18:51;20.00;75.80
70801;DHT22;59616;52.170;5.386;2022-09-06T03:21:18;19.90;75.70
70801;DHT22;59616;52.170;5.386;2022-09-06T03:23:45;19.90;75.90
70801;DHT22;59616;52.170;5.386;2022-09-06T03:26:11;19.90;75.80
70801;DHT22;59616;52.170;5.386;2022-09-06T03:28:38;19.90;75.90
70801;DHT22;59616;52.170;5.386;2022-09-06T03:31:05;19.90;76.10
70801;DHT22;59616;52.170;5.386;2022-09-06T03:33:32;19.90;76.20
70801;DHT22;59616;52.170;5.386;2022-09-06T03:36:00;19.90;76.30
70801;DHT22;59616;52.170;5.386;2022-09-06T03:38:27;19.90;76.30
70801;DHT22;59616;52.170;5.386;2022-09-06T03:40:55;19.90;76.30
70801;DHT22;59616;52.170;5.386;2022-09-06T03:43:23;19.80;76.30
70801;DHT22;59616;52.170;5.386;2022-09-06T03:45:52;19.80;76.30
70801;DHT22;59616;52.170;5.386;2022-09-06T03:48:21;19.80;76.30
70801;DHT22;59616;52.170;5.386;2022-09-06T03:50:50;19.80;76.40
70801;DHT22;59616;52.170;5.386;2022-09-06T03:53:17;19.70;76.40
70801;DHT22;59616;52.170;5.386;2022-09-06T03:55:45;19.70;76.50
70801;DHT22;59616;52.170;5.386;2022-09-06T03:58:13;19.60;76.50
70801;DHT22;59616;52.170;5.386;2022-09-06T04:00:40;19.60;76.70
70801;DHT22;59616;52.170;5.386;2022-09-06T04:03:06;19.60;76.70
70801;DHT22;59616;52.170;5.386;2022-09-06T04:05:34;19.50;76.70
70801;DHT22;59616;52.170;5.386;2022-09-06T04:08:01;19.50;76.90
70801;DHT22;59616;52.170;5.386;2022-09-06T04:10:28;19.50;77.00
70801;DHT22;59616;52.170;5.386;2022-09-06T04:12:54;19.50;77.10
70801;DHT22;59616;52.170;5.386;2022-09-06T04:15:21;19.50;77.30
70801;DHT22;59616;52.170;5.386;2022-09-06T04:17:48;19.40;77.30
70801;DHT22;59616;52.170;5.386;2022-09-06T04:20:15;19.50;77.40
70801;DHT22;59616;52.170;5.386;2022-09-06T04:22:42;19.50;77.30
70801;DHT22;59616;52.170;5.386;2022-09-06T04:25:09;19.50;77.40
70801;DHT22;59616;52.170;5.386;2022-09-06T04:27:36;19.40;77.40
70801;DHT22;59616;52.170;5.386;2022-09-06T04:30:04;19.50;77.40
70801;DHT22;59616;52.170;5.386;2022-09-06T04:32:31;19.50;77.30
70801;DHT22;59616;52.170;5.386;2022-09-06T04:34:58;19.50;77.30
70801;DHT22;59616;52.170;5.386;2022-09-06T04:37:24;19.50;77.20
70801;DHT22;59616;52.170;5.386;2022-09-06T04:39:51;19.50;77.00
70801;DHT22;59616;52.170;5.386;2022-09-06T04:42:18;19.60;77.10
70801;DHT22;59616;52.170;5.386;2022-09-06T04:44:45;19.60;77.00
70801;DHT22;59616;52.170;5.386;2022-09-06T04:47:13;19.60;76.80
70801;DHT22;59616;52.170;5.386;2022-09-06T04:49:41;19.60;76.80
70801;DHT22;59616;52.170;5.386;2022-09-06T04:52:08;19.50;76.60
70801;DHT22;59616;52.170;5.386;2022-09-06T04:54:35;19.50;76.80
70801;DHT22;59616;52.170;5.386;2022-09-06T04:57:02;19.50;76.70
70801;DHT22;59616;52.170;5.386;2022-09-06T04:59:28;19.50;76.80
70801;DHT22;59616;52.170;5.386;2022-09-06T05:01:55;19.50;76.80
70801;DHT22;59616;52.170;5.386;2022-09-06T05:04:22;19.50;76.80
70801;DHT22;59616;52.170;5.386;2022-09-06T05:06:59;19.50;76.70
70801;DHT22;59616;52.170;5.386;2022-09-06T05:09:26;19.50;76.70
70801;DHT22;59616;52.170;5.386;2022-09-06T05:11:53;19.40;76.70
70801;DHT22;59616;52.170;5.386;2022-09-06T05:14:20;19.50;76.70
70801;DHT22;59616;52.170;5.386;2022-09-06T05:16:47;19.50;76.90
70801;DHT22;59616;52.170;5.386;2022-09-06T05:19:14;19.50;76.80
70801;DHT22;59616;52.170;5.386;2022-09-06T05:21:41;19.40;76.80
70801;DHT22;59616;52.170;5.386;2022-09-06T05:24:07;19.40;76.70
70801;DHT22;59616;52.170;5.386;2022-09-06T05:26:34;19.40;76.80
70801;DHT22;59616;52.170;5.386;2022-09-06T05:29:01;19.40;77.00
70801;DHT22;59616;52.170;5.386;2022-09-06T05:31:32;19.30;77.00
70801;DHT22;59616;52.170;5.386;2022-09-06T05:34:00;19.40;77.00
70801;DHT22;59616;52.170;5.386;2022-09-06T05:36:28;19.30;77.00
70801;DHT22;59616;52.170;5.386;2022-09-06T05:38:55;19.30;77.20
70801;DHT22;59616;52.170;5.386;2022-09-06T05:41:23;19.30;77.30
70801;DHT22;59616;52.170;5.386;2022-09-06T05:43:50;19.30;77.30
70801;DHT22;59616;52.170;5.386;2022-09-06T05:46:17;19.20;77.10
70801;DHT22;59616;52.170;5.386;2022-09-06T05:48:51;19.30;77.20
70801;DHT22;59616;52.170;5.386;2022-09-06T05:51:18;19.30;77.30
70801;DHT22;59616;52.170;5.386;2022-09-06T05:53:44;19.30;77.20
70801;DHT22;59616;52.170;5.386;2022-09-06T05:56:12;19.30;77.40
70801;DHT22;59616;52.170;5.386;2022-09-06T05:58:39;19.30;77.30
70801;DHT22;59616;52.170;5.386;2022-09-06T06:03:33;19.20;77.40
70801;DHT22;59616;52.170;5.386;2022-09-06T06:06:00;19.20;77.50
70801;DHT22;59616;52.170;5.386;2022-09-06T06:08:26;19.30;77.50
70801;DHT22;59616;52.170;5.386;2022-09-06T06:10:58;19.30;77.50
70801;DHT22;59616;52.170;5.386;2022-09-06T06:13:28;19.30;77.50
70801;DHT22;59616;52.170;5.386;2022-09-06T06:15:55;19.30;77.60
70801;DHT22;59616;52.170;5.386;2022-09-06T06:18:22;19.30;77.60
70801;DHT22;59616;52.170;5.386;2022-09-06T06:20:49;19.30;77.60
70801;DHT22;59616;52.170;5.386;2022-09-06T06:23:16;19.30;77.70
70801;DHT22;59616;52.170;5.386;2022-09-06T06:25:42;19.30;77.70
70801;DHT22;59616;52.170;5.386;2022-09-06T06:28:09;19.40;77.80
70801;DHT22;59616;52.170;5.386;2022-09-06T06:30:36;19.40;77.90
70801;DHT22;59616;52.170;5.386;2022-09-06T06:33:02;19.30;78.10
70801;DHT22;59616;52.170;5.386;2022-09-06T06:35:29;19.30;78.10
70801;DHT22;59616;52.170;5.386;2022-09-06T06:37:56;19.30;79.10
70801;DHT22;59616;52.170;5.386;2022-09-06T06:40:22;19.30;78.10
70801;DHT22;59616;52.170;5.386;2022-09-06T06:42:49;19.40;78.30
70801;DHT22;59616;52.170;5.386;2022-09-06T06:45:16;19.40;78.40
70801;DHT22;59616;52.170;5.386;2022-09-06T06:47:43;19.40;78.20
70801;DHT22;59616;52.170;5.386;2022-09-06T06:50:09;19.40;78.30
70801;DHT22;59616;52.170;5.386;2022-09-06T06:52:36;19.40;78.30
70801;DHT22;59616;52.170;5.386;2022-09-06T06:55:05;19.50;78.20
70801;DHT22;59616;52.170;5.386;2022-09-06T06:57:32;19.50;78.10
70801;DHT22;59616;52.170;5.386;2022-09-06T06:59:58;19.60;78.20
70801;DHT22;59616;52.170;5.386;2022-09-06T07:02:25;19.60;78.10
70801;DHT22;59616;52.170;5.386;2022-09-06T07:04:52;19.60;77.90
70801;DHT22;59616;52.170;5.386;2022-09-06T07:07:19;19.70;77.90
70801;DHT22;59616;52.170;5.386;2022-09-06T07:10:06;19.70;77.70
70801;DHT22;59616;52.170;5.386;2022-09-06T07:12:52;19.70;77.60
70801;DHT22;59616;52.170;5.386;2022-09-06T07:15:19;19.80;77.40
70801;DHT22;59616;52.170;5.386;2022-09-06T07:17:46;19.80;77.30
70801;DHT22;59616;52.170;5.386;2022-09-06T07:20:13;19.90;77.10
70801;DHT22;59616;52.170;5.386;2022-09-06T07:22:40;19.90;77.00
70801;DHT22;59616;52.170;5.386;2022-09-06T07:25:09;19.90;76.90
70801;DHT22;59616;52.170;5.386;2022-09-06T07:27:37;20.00;76.70
70801;DHT22;59616;52.170;5.386;2022-09-06T07:30:11;20.00;76.70
70801;DHT22;59616;52.170;5.386;2022-09-06T07:32:39;20.00;76.50
70801;DHT22;59616;52.170;5.386;2022-09-06T07:35:06;20.10;76.30
70801;DHT22;59616;52.170;5.386;2022-09-06T07:37:33;20.10;76.00
70801;DHT22;59616;52.170;5.386;2022-09-06T07:40:00;20.20;76.00
70801;DHT22;59616;52.170;5.386;2022-09-06T07:42:27;20.20;75.80
70801;DHT22;59616;52.170;5.386;2022-09-06T07:45:03;20.20;75.70
70801;DHT22;59616;52.170;5.386;2022-09-06T07:47:30;20.30;75.60
70801;DHT22;59616;52.170;5.386;2022-09-06T07:50:16;20.40;75.50
70801;DHT22;59616;52.170;5.386;2022-09-06T07:53:07;20.40;75.40
70801;DHT22;59616;52.170;5.386;2022-09-06T07:55:40;20.50;75.10
70801;DHT22;59616;52.170;5.386;2022-09-06T07:58:07;20.60;74.90
70801;DHT22;59616;52.170;5.386;2022-09-06T08:00:34;20.70;74.80
70801;DHT22;59616;52.170;5.386;2022-09-06T08:03:00;20.70;74.80
70801;DHT22;59616;52.170;5.386;2022-09-06T08:05:27;20.80;74.70
70801;DHT22;59616;52.170;5.386;2022-09-06T08:08:14;20.80;74.30
70801;DHT22;59616;52.170;5.386;2022-09-06T08:11:01;20.90;74.00
70801;DHT22;59616;52.170;5.386;2022-09-06T08:13:27;21.00;73.60
70801;DHT22;59616;52.170;5.386;2022-09-06T08:16:02;21.10;73.30
70801;DHT22;59616;52.170;5.386;2022-09-06T08:18:30;21.20;72.80
70801;DHT22;59616;52.170;5.386;2022-09-06T08:21:05;21.30;72.70
70801;DHT22;59616;52.170;5.386;2022-09-06T08:23:45;21.30;72.40
70801;DHT22;59616;52.170;5.386;2022-09-06T08:26:13;21.40;72.10
70801;DHT22;59616;52.170;5.386;2022-09-06T08:28:40;21.60;71.90
70801;DHT22;59616;52.170;5.386;2022-09-06T08:31:12;21.60;72.70
70801;DHT22;59616;52.170;5.386;2022-09-06T08:33:40;21.80;71.70
70801;DHT22;59616;52.170;5.386;2022-09-06T08:36:08;21.90;71.40
70801;DHT22;59616;52.170;5.386;2022-09-06T08:38:35;22.00;71.10
70801;DHT22;59616;52.170;5.386;2022-09-06T08:41:09;22.20;70.80
70801;DHT22;59616;52.170;5.386;2022-09-06T08:43:36;22.40;70.50
70801;DHT22;59616;52.170;5.386;2022-09-06T08:46:05;22.50;69.90
70801;DHT22;59616;52.170;5.386;2022-09-06T08:48:35;22.70;69.40
70801;DHT22;59616;52.170;5.386;2022-09-06T08:51:36;22.80;68.80
70801;DHT22;59616;52.170;5.386;2022-09-06T08:57:30;23.30;68.10
70801;DHT22;59616;52.170;5.386;2022-09-06T09:00:05;23.60;67.60
70801;DHT22;59616;52.170;5.386;2022-09-06T09:05:33;24.10;66.30
70801;DHT22;59616;52.170;5.386;2022-09-06T09:10:56;24.50;64.90
70801;DHT22;59616;52.170;5.386;2022-09-06T09:16:13;24.90;63.90
70801;DHT22;59616;52.170;5.386;2022-09-06T09:18:43;24.90;63.20
70801;DHT22;59616;52.170;5.386;2022-09-06T09:21:11;25.00;63.00
70801;DHT22;59616;52.170;5.386;2022-09-06T09:23:39;25.10;62.90
70801;DHT22;59616;52.170;5.386;2022-09-06T09:26:11;25.30;62.70
70801;DHT22;59616;52.170;5.386;2022-09-06T09:29:07;25.50;61.80
70801;DHT22;59616;52.170;5.386;2022-09-06T09:31:36;25.60;62.00
70801;DHT22;59616;52.170;5.386;2022-09-06T09:34:04;25.70;61.30
70801;DHT22;59616;52.170;5.386;2022-09-06T09:36:31;25.80;60.50
70801;DHT22;59616;52.170;5.386;2022-09-06T09:38:58;25.70;60.40
70801;DHT22;59616;52.170;5.386;2022-09-06T09:41:33;25.70;60.20
70801;DHT22;59616;52.170;5.386;2022-09-06T09:44:04;25.80;60.10
70801;DHT22;59616;52.170;5.386;2022-09-06T09:46:33;25.90;60.00
70801;DHT22;59616;52.170;5.386;2022-09-06T09:49:27;25.90;59.90
70801;DHT22;59616;52.170;5.386;2022-09-06T09:52:10;26.00;59.70
70801;DHT22;59616;52.170;5.386;2022-09-06T09:54:40;25.90;59.20
70801;DHT22;59616;52.170;5.386;2022-09-06T09:57:10;25.90;58.90
70801;DHT22;59616;52.170;5.386;2022-09-06T09:59:51;25.90;59.00
70801;DHT22;59616;52.170;5.386;2022-09-06T10:02:30;26.00;59.00
70801;DHT22;59616;52.170;5.386;2022-09-06T10:05:05;26.10;58.60
70801;DHT22;59616;52.170;5.386;2022-09-06T10:07:34;26.20;58.30
70801;DHT22;59616;52.170;5.386;2022-09-06T10:10:19;26.20;58.30
70801;DHT22;59616;52.170;5.386;2022-09-06T10:12:46;26.20;58.50
70801;DHT22;59616;52.170;5.386;2022-09-06T10:15:33;26.30;58.60
70801;DHT22;59616;52.170;5.386;2022-09-06T10:18:00;26.40;58.70
70801;DHT22;59616;52.170;5.386;2022-09-06T10:20:49;26.40;58.10
70801;DHT22;59616;52.170;5.386;2022-09-06T10:23:47;26.60;57.90
70801;DHT22;59616;52.170;5.386;2022-09-06T10:26:52;26.70;57.60
70801;DHT22;59616;52.170;5.386;2022-09-06T10:29:49;26.80;56.80
70801;DHT22;59616;52.170;5.386;2022-09-06T10:32:59;26.80;56.70
70801;DHT22;59616;52.170;5.386;2022-09-06T10:35:36;27.00;57.10
70801;DHT22;59616;52.170;5.386;2022-09-06T10:41:30;27.00;55.60
70801;DHT22;59616;52.170;5.386;2022-09-06T10:46:30;27.30;55.50
70801;DHT22;59616;52.170;5.386;2022-09-06T10:48:59;27.40;54.50
70801;DHT22;59616;52.170;5.386;2022-09-06T10:51:42;27.40;54.00
70801;DHT22;59616;52.170;5.386;2022-09-06T10:54:22;27.30;54.30
70801;DHT22;59616;52.170;5.386;2022-09-06T10:57:01;27.30;53.80
70801;DHT22;59616;52.170;5.386;2022-09-06T10:59:51;27.50;53.40
70801;DHT22;59616;52.170;5.386;2022-09-06T11:05:21;27.80;53.10
70801;DHT22;59616;52.170;5.386;2022-09-06T11:08:31;27.90;52.70
70801;DHT22;59616;52.170;5.386;2022-09-06T11:11:19;28.00;52.80
70801;DHT22;59616;52.170;5.386;2022-09-06T11:13:48;28.10;52.70
70801;DHT22;59616;52.170;5.386;2022-09-06T11:16:24;28.10;52.00
70801;DHT22;59616;52.170;5.386;2022-09-06T11:19:02;28.30;51.70
70801;DHT22;59616;52.170;5.386;2022-09-06T11:27:25;27.70;52.40
70801;DHT22;59616;52.170;5.386;2022-09-06T11:30:00;27.80;52.90
70801;DHT22;59616;52.170;5.386;2022-09-06T11:32:36;28.00;52.10
70801;DHT22;59616;52.170;5.386;2022-09-06T11:35:09;28.00;51.90
70801;DHT22;59616;52.170;5.386;2022-09-06T11:37:46;27.90;52.30
70801;DHT22;59616;52.170;5.386;2022-09-06T11:40:16;28.00;52.20
70801;DHT22;59616;52.170;5.386;2022-09-06T11:45:20;28.60;51.40
70801;DHT22;59616;52.170;5.386;2022-09-06T11:47:49;28.70;50.90
70801;DHT22;59616;52.170;5.386;2022-09-06T11:58:20;28.80;49.90
70801;DHT22;59616;52.170;5.386;2022-09-06T12:07:05;28.80;50.20
70801;DHT22;59616;52.170;5.386;2022-09-06T12:09:38;28.80;50.10
70801;DHT22;59616;52.170;5.386;2022-09-06T12:12:05;28.90;50.50
70801;DHT22;59616;52.170;5.386;2022-09-06T12:14:43;28.70;50.60
70801;DHT22;59616;52.170;5.386;2022-09-06T12:19:57;28.70;50.70
70801;DHT22;59616;52.170;5.386;2022-09-06T12:25:16;28.80;50.00
70801;DHT22;59616;52.170;5.386;2022-09-06T12:27:57;28.60;50.00
70801;DHT22;59616;52.170;5.386;2022-09-06T12:30:37;28.30;50.40
70801;DHT22;59616;52.170;5.386;2022-09-06T12:33:08;28.30;50.40
70801;DHT22;59616;52.170;5.386;2022-09-06T12:35:36;28.40;50.40
70801;DHT22;59616;52.170;5.386;2022-09-06T12:38:24;28.40;50.30
70801;DHT22;59616;52.170;5.386;2022-09-06T12:40:51;28.50;50.00
70801;DHT22;59616;52.170;5.386;2022-09-06T12:43:23;28.50;50.20
70801;DHT22;59616;52.170;5.386;2022-09-06T12:45:51;28.50;50.10
70801;DHT22;59616;52.170;5.386;2022-09-06T12:48:30;28.30;50.50
70801;DHT22;59616;52.170;5.386;2022-09-06T12:51:05;28.20;50.90
70801;DHT22;59616;52.170;5.386;2022-09-06T12:53:32;28.10;50.90
70801;DHT22;59616;52.170;5.386;2022-09-06T12:56:06;28.20;50.80
70801;DHT22;59616;52.170;5.386;2022-09-06T12:58:34;28.20;50.40
70801;DHT22;59616;52.170;5.386;2022-09-06T13:01:10;28.10;50.30
70801;DHT22;59616;52.170;5.386;2022-09-06T13:03:46;28.20;50.30
70801;DHT22;59616;52.170;5.386;2022-09-06T13:06:22;28.30;50.50
70801;DHT22;59616;52.170;5.386;2022-09-06T13:08:54;28.40;50.40
70801;DHT22;59616;52.170;5.386;2022-09-06T13:13:56;28.60;49.30
70801;DHT22;59616;52.170;5.386;2022-09-06T13:16:25;28.50;48.90
70801;DHT22;59616;52.170;5.386;2022-09-06T13:18:52;28.50;48.60
70801;DHT22;59616;52.170;5.386;2022-09-06T13:21:25;28.50;48.30
70801;DHT22;59616;52.170;5.386;2022-09-06T13:23:52;28.50;48.30
70801;DHT22;59616;52.170;5.386;2022-09-06T13:29:22;28.60;48.20
70801;DHT22;59616;52.170;5.386;2022-09-06T13:31:51;28.60;48.50
70801;DHT22;59616;52.170;5.386;2022-09-06T13:34:29;28.50;47.70
70801;DHT22;59616;52.170;5.386;2022-09-06T13:37:00;28.40;48.20
70801;DHT22;59616;52.170;5.386;2022-09-06T13:39:36;28.30;48.70
70801;DHT22;59616;52.170;5.386;2022-09-06T13:42:08;28.30;48.50
70801;DHT22;59616;52.170;5.386;2022-09-06T13:44:37;28.30;48.70
70801;DHT22;59616;52.170;5.386;2022-09-06T13:47:04;28.40;49.00
70801;DHT22;59616;52.170;5.386;2022-09-06T13:49:32;28.50;49.00
70801;DHT22;59616;52.170;5.386;2022-09-06T13:52:01;28.50;48.90
70801;DHT22;59616;52.170;5.386;2022-09-06T13:54:29;28.50;48.90
70801;DHT22;59616;52.170;5.386;2022-09-06T13:56:56;28.50;49.00
70801;DHT22;59616;52.170;5.386;2022-09-06T13:59:23;28.50;49.20
70801;DHT22;59616;52.170;5.386;2022-09-06T14:02:05;28.50;48.80
70801;DHT22;59616;52.170;5.386;2022-09-06T14:04:33;28.40;48.50
70801;DHT22;59616;52.170;5.386;2022-09-06T14:07:01;28.30;48.50
70801;DHT22;59616;52.170;5.386;2022-09-06T14:09:29;28.30;48.50
70801;DHT22;59616;52.170;5.386;2022-09-06T14:11:55;28.30;49.60
70801;DHT22;59616;52.170;5.386;2022-09-06T14:14:22;28.30;48.40
70801;DHT22;59616;52.170;5.386;2022-09-06T14:16:50;28.20;48.40
70801;DHT22;59616;52.170;5.386;2022-09-06T14:19:17;28.30;48.70
70801;DHT22;59616;52.170;5.386;2022-09-06T14:21:43;28.30;48.50
70801;DHT22;59616;52.170;5.386;2022-09-06T14:24:10;28.40;48.10
70801;DHT22;59616;52.170;5.386;2022-09-06T14:26:37;28.40;47.70
70801;DHT22;59616;52.170;5.386;2022-09-06T14:29:04;28.40;48.10
70801;DHT22;59616;52.170;5.386;2022-09-06T14:31:31;28.50;48.00
70801;DHT22;59616;52.170;5.386;2022-09-06T14:34:00;28.40;47.70
70801;DHT22;59616;52.170;5.386;2022-09-06T14:36:28;28.20;47.70
70801;DHT22;59616;52.170;5.386;2022-09-06T14:38:58;28.10;47.60
70801;DHT22;59616;52.170;5.386;2022-09-06T14:41:25;28.20;47.80
70801;DHT22;59616;52.170;5.386;2022-09-06T14:43:54;28.30;47.70
70801;DHT22;59616;52.170;5.386;2022-09-06T14:46:22;28.40;47.30
70801;DHT22;59616;52.170;5.386;2022-09-06T14:48:56;28.60;47.00
70801;DHT22;59616;52.170;5.386;2022-09-06T14:51:23;28.70;46.90
70801;DHT22;59616;52.170;5.386;2022-09-06T14:53:53;28.80;46.80
70801;DHT22;59616;52.170;5.386;2022-09-06T14:56:21;28.70;46.80
70801;DHT22;59616;52.170;5.386;2022-09-06T14:58:48;28.60;47.00
70801;DHT22;59616;52.170;5.386;2022-09-06T15:01:19;28.60;47.00
70801;DHT22;59616;52.170;5.386;2022-09-06T15:03:49;28.50;47.10
70801;DHT22;59616;52.170;5.386;2022-09-06T15:06:19;28.40;47.20
70801;DHT22;59616;52.170;5.386;2022-09-06T15:08:46;28.30;47.40
70801;DHT22;59616;52.170;5.386;2022-09-06T15:11:25;28.20;47.70
70801;DHT22;59616;52.170;5.386;2022-09-06T15:13:56;28.20;47.80
70801;DHT22;59616;52.170;5.386;2022-09-06T15:16:23;28.30;47.90
70801;DHT22;59616;52.170;5.386;2022-09-06T15:18:49;28.30;47.70
70801;DHT22;59616;52.170;5.386;2022-09-06T15:21:16;28.30;47.80
70801;DHT22;59616;52.170;5.386;2022-09-06T15:23:43;28.20;47.80
70801;DHT22;59616;52.170;5.386;2022-09-06T15:26:14;28.10;48.00
70801;DHT22;59616;52.170;5.386;2022-09-06T15:28:42;28.00;48.10
70801;DHT22;59616;52.170;5.386;2022-09-06T15:31:11;27.90;48.30
70801;DHT22;59616;52.170;5.386;2022-09-06T15:33:39;27.80;48.60
70801;DHT22;59616;52.170;5.386;2022-09-06T15:36:08;27.70;48.80
70801;DHT22;59616;52.170;5.386;2022-09-06T15:38:39;27.60;49.00
70801;DHT22;59616;52.170;5.386;2022-09-06T15:41:12;27.60;49.00
70801;DHT22;59616;52.170;5.386;2022-09-06T15:43:44;27.60;49.00
70801;DHT22;59616;52.170;5.386;2022-09-06T15:46:14;27.60;48.90
70801;DHT22;59616;52.170;5.386;2022-09-06T15:48:45;27.60;49.00
70801;DHT22;59616;52.170;5.386;2022-09-06T15:51:15;27.70;48.90
70801;DHT22;59616;52.170;5.386;2022-09-06T15:53:43;27.80;48.50
70801;DHT22;59616;52.170;5.386;2022-09-06T15:56:12;28.00;48.40
70801;DHT22;59616;52.170;5.386;2022-09-06T15:58:39;28.10;48.20
70801;DHT22;59616;52.170;5.386;2022-09-06T16:01:11;28.10;48.00
70801;DHT22;59616;52.170;5.386;2022-09-06T16:03:46;28.10;47.80
70801;DHT22;59616;52.170;5.386;2022-09-06T16:06:16;28.00;47.80
70801;DHT22;59616;52.170;5.386;2022-09-06T16:08:58;27.90;47.80
70801;DHT22;59616;52.170;5.386;2022-09-06T16:11:26;27.90;47.90
70801;DHT22;59616;52.170;5.386;2022-09-06T16:13:53;27.80;47.80
70801;DHT22;59616;52.170;5.386;2022-09-06T16:16:20;27.70;47.80
70801;DHT22;59616;52.170;5.386;2022-09-06T16:18:48;27.60;48.40
70801;DHT22;59616;52.170;5.386;2022-09-06T16:21:23;27.40;48.20
70801;DHT22;59616;52.170;5.386;2022-09-06T16:26:26;27.00;48.60
70801;DHT22;59616;52.170;5.386;2022-09-06T16:28:53;26.90;48.90
70801;DHT22;59616;52.170;5.386;2022-09-06T16:31:20;26.90;49.10
70801;DHT22;59616;52.170;5.386;2022-09-06T16:33:48;26.90;49.30
70801;DHT22;59616;52.170;5.386;2022-09-06T16:36:16;26.90;49.40
70801;DHT22;59616;52.170;5.386;2022-09-06T16:38:43;26.90;49.40
70801;DHT22;59616;52.170;5.386;2022-09-06T16:41:49;26.90;49.70
70801;DHT22;59616;52.170;5.386;2022-09-06T16:44:10;26.80;49.90
70801;DHT22;59616;52.170;5.386;2022-09-06T16:46:42;26.80;50.10
70801;DHT22;59616;52.170;5.386;2022-09-06T16:49:09;26.80;50.10
70801;DHT22;59616;52.170;5.386;2022-09-06T16:51:36;26.70;50.10
70801;DHT22;59616;52.170;5.386;2022-09-06T16:54:03;26.60;50.20
70801;DHT22;59616;52.170;5.386;2022-09-06T16:56:31;26.60;50.40
70801;DHT22;59616;52.170;5.386;2022-09-06T16:59:02;26.60;50.50
70801;DHT22;59616;52.170;5.386;2022-09-06T17:01:30;26.50;50.40
70801;DHT22;59616;52.170;5.386;2022-09-06T17:03:59;26.50;50.70
70801;DHT22;59616;52.170;5.386;2022-09-06T17:06:28;26.40;50.70
70801;DHT22;59616;52.170;5.386;2022-09-06T17:08:56;26.30;50.70
70801;DHT22;59616;52.170;5.386;2022-09-06T17:11:26;26.30;50.90
70801;DHT22;59616;52.170;5.386;2022-09-06T17:13:55;26.20;50.60
70801;DHT22;59616;52.170;5.386;2022-09-06T17:16:23;26.10;50.40